Time;durP1;ratioP1;P1;durP2;ratioP2;P2;SDS_P1;SDS_P2;PMS_P1;PMS_P2;Temp;Humidity;BMP_temperature;BMP_pressure;BME280_temperature;BME280_humidity;BME280_pressure;Samples;Min_cycle;Max_cycle;Signal;HPM_P1;HPM_P2
2021/10/25 00:01:29;;;;;;;5.85;2.80;;;;;;;7.85;88.54;100491.97;5039039;28;20140;-68
2021/10/25 00:03:56;;;;;;;6.15;2.80;;;;;;;7.85;88.41;100499.94;5039175;28;20041;-68
2021/10/25 00:06:24;;;;;;;5.80;2.65;;;;;;;7.84;88.60;100500.88;5054222;28;20095;-68
2021/10/25 00:08:51;;;;;;;6.03;2.72;;;;;;;7.79;88.46;100480.78;5038910;28;20079;-68
2021/10/25 00:11:18;;;;;;;5.53;2.42;;;;;;;7.85;88.33;100489.31;5037601;28;20099;-68
2021/10/25 00:13:45;;;;;;;4.78;2.45;;;;;;;7.88;88.70;100496.28;5038754;28;20049;-68
2021/10/25 00:16:11;;;;;;;8.40;2.95;;;;;;;7.80;89.28;100491.31;5033898;28;20100;-68
2021/10/25 00:18:38;;;;;;;4.90;2.75;;;;;;;7.82;89.04;100493.91;5018782;28;20088;-68
2021/10/25 00:21:05;;;;;;;5.20;2.55;;;;;;;7.81;88.92;100494.84;5017651;28;20052;-68
2021/10/25 00:23:32;;;;;;;5.63;3.20;;;;;;;7.87;88.96;100489.25;5018733;28;20046;-69
2021/10/25 00:26:00;;;;;;;6.10;2.60;;;;;;;7.88;88.95;100490.97;5004915;28;20067;-68
2021/10/25 00:28:27;;;;;;;4.78;2.30;;;;;;;7.86;89.24;100485.72;5037471;28;20058;-69
2021/10/25 00:30:54;;;;;;;5.55;2.83;;;;;;;7.79;89.52;100486.09;5038566;28;20425;-69
2021/10/25 00:33:20;;;;;;;4.72;2.85;;;;;;;7.80;89.42;100487.81;5038373;28;20049;-68
2021/10/25 00:35:48;;;;;;;6.15;3.05;;;;;;;7.78;89.33;100489.69;5038247;28;20453;-69
2021/10/25 00:38:15;;;;;;;5.25;2.80;;;;;;;7.79;89.44;100491.41;5036933;28;20057;-68
2021/10/25 00:40:43;;;;;;;3.70;2.33;;;;;;;7.79;89.56;100492.25;5037065;28;20084;-68
2021/10/25 00:43:10;;;;;;;8.90;2.80;;;;;;;7.74;89.42;100488.94;5038199;28;20046;-68
2021/10/25 00:45:37;;;;;;;7.47;2.60;;;;;;;7.72;89.92;100496.97;5038027;28;20446;-69
2021/10/25 00:48:04;;;;;;;6.80;2.50;;;;;;;7.71;90.15;100494.38;5036950;28;20045;-68
2021/10/25 00:50:31;;;;;;;6.35;3.45;;;;;;;7.64;90.60;100492.94;5037803;28;20049;-69
2021/10/25 00:52:59;;;;;;;5.30;2.88;;;;;;;7.61;90.72;100493.91;5038007;28;20064;-68
2021/10/25 00:55:26;;;;;;;4.43;2.42;;;;;;;7.62;90.62;100495.63;5037785;28;20085;-67
2021/10/25 00:57:53;;;;;;;4.68;2.50;;;;;;;7.56;91.08;100502.09;5036614;28;20091;-68
2021/10/25 01:00:20;;;;;;;3.05;2.00;;;;;;;7.56;90.91;100491.47;5036722;28;20132;-69
2021/10/25 01:02:48;;;;;;;5.40;2.63;;;;;;;7.63;90.50;100492.03;5038065;28;20057;-69
2021/10/25 01:05:15;;;;;;;6.43;2.65;;;;;;;7.54;91.10;100488.03;5037574;28;20351;-68
2021/10/25 01:07:44;;;;;;;4.15;2.42;;;;;;;7.57;91.00;100492.34;5036932;28;20068;-68
2021/10/25 01:10:11;;;;;;;5.35;2.45;;;;;;;7.67;90.25;100493.66;5035797;28;20057;-68
2021/10/25 01:12:39;;;;;;;5.65;2.65;;;;;;;7.64;90.62;100491.16;5037508;28;20049;-68
2021/10/25 01:15:06;;;;;;;3.88;2.10;;;;;;;7.59;91.12;100487.81;5036399;28;20068;-68
2021/10/25 01:17:35;;;;;;;5.70;2.42;;;;;;;7.55;91.31;100492.41;5037181;28;20056;-68
2021/10/25 01:20:04;;;;;;;7.38;2.75;;;;;;;7.54;91.28;100481.84;5037610;28;20054;-68
2021/10/25 01:22:31;;;;;;;7.75;2.80;;;;;;;7.56;91.27;100480.84;5036214;28;20049;-67
2021/10/25 01:24:59;;;;;;;6.22;3.03;;;;;;;7.56;91.07;100479.97;5037158;28;20447;-68
2021/10/25 01:27:27;;;;;;;11.02;2.63;;;;;;;7.63;91.07;100469.94;5035995;28;20049;-68
2021/10/25 01:29:57;;;;;;;6.07;2.80;;;;;;;7.59;91.10;100470.06;5035160;28;20095;-68
2021/10/25 01:32:24;;;;;;;4.32;2.38;;;;;;;7.59;91.34;100475.38;5035495;28;20375;-68
2021/10/25 01:34:51;;;;;;;3.78;2.45;;;;;;;7.64;90.94;100476.97;5035971;28;20132;-68
2021/10/25 01:37:18;;;;;;;7.00;2.85;;;;;;;7.66;91.06;100470.69;5035789;28;20129;-69
2021/10/25 01:39:46;;;;;;;4.70;2.88;;;;;;;7.65;91.19;100479.59;5035857;28;20060;-67
2021/10/25 01:42:13;;;;;;;5.82;2.50;;;;;;;7.59;91.34;100475.38;5035658;28;20458;-68
2021/10/25 01:44:41;;;;;;;4.45;2.38;;;;;;;7.63;91.53;100475.25;5035859;28;20056;-68
2021/10/25 01:47:09;;;;;;;3.80;2.45;;;;;;;7.61;91.09;100462.03;5019349;28;20073;-67
2021/10/25 01:49:36;;;;;;;5.72;2.63;;;;;;;7.65;91.13;100468.06;5019235;28;20049;-69
2021/10/25 01:52:04;;;;;;;6.88;2.55;;;;;;;7.69;91.23;100459.06;5035717;28;20072;-69
2021/10/25 01:54:36;;;;;;;6.10;2.25;;;;;;;7.72;90.93;100461.56;5035640;28;20107;-68
2021/10/25 01:57:07;;;;;;;4.38;2.65;;;;;;;7.65;91.52;100453.00;5035481;28;20132;-68
2021/10/25 01:59:35;;;;;;;;;;;;;;;7.61;91.65;100454.06;5035818;28;20057;-68
2021/10/25 02:02:02;;;;;;;6.22;2.25;;;;;;;7.62;91.81;100463.75;5035344;28;20007;-69
2021/10/25 02:04:31;;;;;;;4.53;2.65;;;;;;;7.65;91.39;100452.13;5035725;28;20399;-69
2021/10/25 02:06:58;;;;;;;5.95;2.75;;;;;;;7.68;91.75;100455.53;5035412;28;20048;-69
2021/10/25 02:09:26;;;;;;;5.93;2.28;;;;;;;7.64;91.80;100451.28;5035269;28;20055;-69
2021/10/25 02:11:53;;;;;;;7.50;2.45;;;;;;;7.64;91.57;100453.06;5035473;28;20416;-68
2021/10/25 02:14:20;;;;;;;9.45;2.70;;;;;;;7.57;92.13;100455.16;5035235;28;20037;-68
2021/10/25 02:16:49;;;;;;;5.50;2.30;;;;;;;7.54;92.40;100447.31;5018844;28;20111;-68
2021/10/25 02:19:16;;;;;;;5.80;2.28;;;;;;;7.52;92.56;100446.50;5018891;28;20076;-68
2021/10/25 02:21:53;;;;;;;6.45;2.95;;;;;;;7.46;93.09;100442.31;5020352;28;20050;-68
2021/10/25 02:24:21;;;;;;;6.15;2.67;;;;;;;7.46;92.93;100443.19;5035042;28;20049;-68
2021/10/25 02:26:48;;;;;;;4.80;2.22;;;;;;;7.42;93.21;100438.94;5018768;28;20046;-68
2021/10/25 02:29:15;;;;;;;6.07;2.45;;;;;;;7.46;92.67;100437.00;5036270;28;20049;-67
2021/10/25 02:31:42;;;;;;;4.03;2.40;;;;;;;7.45;93.00;100435.28;5035055;28;20057;-68
2021/10/25 02:34:10;;;;;;;4.13;2.60;;;;;;;7.34;93.16;100428.66;5018935;28;20041;-68
2021/10/25 02:36:37;;;;;;;5.13;2.35;;;;;;;7.42;93.15;100433.63;5018504;28;20136;-69
2021/10/25 02:39:13;;;;;;;6.75;2.53;;;;;;;7.41;92.87;100429.25;5019837;28;20107;-69
2021/10/25 02:41:42;;;;;;;4.72;2.30;;;;;;;7.27;93.41;100415.69;5034764;28;20049;-68
2021/10/25 02:44:11;;;;;;;6.82;2.83;;;;;;;7.33;93.69;100423.41;5034794;28;20045;-69
2021/10/25 02:46:37;;;;;;;4.65;2.42;;;;;;;7.35;93.44;100424.19;5034866;28;20136;-68
2021/10/25 02:49:05;;;;;;;8.82;2.53;;;;;;;7.33;93.66;100426.06;5034582;28;20041;-68
2021/10/25 02:51:32;;;;;;;8.48;2.67;;;;;;;7.32;93.75;100425.19;5034608;28;20064;-68
2021/10/25 02:54:00;;;;;;;7.72;3.03;;;;;;;7.32;93.79;100422.53;5034649;28;20132;-69
2021/10/25 02:56:40;;;;;;;3.83;2.10;;;;;;;7.29;93.79;100424.47;5034744;28;20053;-67
2021/10/25 02:59:10;;;;;;;6.45;2.40;;;;;;;7.30;93.76;100423.56;5034459;28;20072;-68
2021/10/25 03:01:38;;;;;;;7.07;2.60;;;;;;;7.29;93.50;100421.81;5034690;28;20046;-68
2021/10/25 03:04:07;;;;;;;6.13;2.72;;;;;;;7.28;93.79;100417.44;5034325;28;20072;-69
2021/10/25 03:06:34;;;;;;;4.20;2.95;;;;;;;7.25;94.08;100417.56;5035577;28;20107;-69
2021/10/25 03:09:02;;;;;;;3.22;2.50;;;;;;;7.22;94.18;100407.94;5034561;28;20052;-69
2021/10/25 03:11:29;;;;;;;3.90;2.38;;;;;;;7.19;94.03;100408.06;5034485;28;20443;-69
2021/10/25 03:13:56;;;;;;;7.07;2.78;;;;;;;7.27;93.66;100410.41;5034210;28;20053;-69
2021/10/25 03:16:28;;;;;;;5.15;2.60;;;;;;;7.28;93.53;100407.69;5035624;28;20049;-68
2021/10/25 03:18:57;;;;;;;12.40;2.55;;;;;;;7.24;93.68;100403.41;5034098;28;20044;-68
2021/10/25 03:21:24;;;;;;;6.90;2.83;;;;;;;7.30;93.66;100408.47;5034239;28;20462;-69
2021/10/25 03:23:52;;;;;;;4.75;2.17;;;;;;;7.30;93.55;100410.28;5034294;28;20133;-69
2021/10/25 03:26:19;;;;;;;7.03;2.30;;;;;;;7.28;93.95;100412.13;5034113;28;20052;-68
2021/10/25 03:28:46;;;;;;;5.40;2.25;;;;;;;7.31;93.34;100412.84;5034149;28;20124;-68
2021/10/25 03:31:16;;;;;;;3.08;2.35;;;;;;;7.32;93.35;100403.09;5033621;28;20045;-68
2021/10/25 03:33:44;;;;;;;3.67;2.43;;;;;;;7.26;93.40;100392.75;5034061;28;20640;-67
2021/10/25 03:36:32;;;;;;;13.90;2.65;;;;;;;7.29;93.39;100400.56;5034101;28;20073;-67
2021/10/25 03:38:59;;;;;;;6.38;2.72;;;;;;;7.25;93.84;100399.00;5033809;28;20050;-67
2021/10/25 03:41:34;;;;;;;4.90;2.20;;;;;;;7.17;94.46;100394.00;5034252;28;20476;-69
2021/10/25 03:44:15;;;;;;;6.88;2.50;;;;;;;7.13;94.70;100395.06;5034031;28;20056;-69
2021/10/25 03:46:57;;;;;;;3.25;2.15;;;;;;;7.13;94.73;100389.78;5033656;28;20129;-68
2021/10/25 03:49:33;;;;;;;3.15;2.22;;;;;;;7.13;94.88;100387.97;5033773;28;20055;-69
2021/10/25 03:52:28;;;;;;;4.15;2.50;;;;;;;7.04;95.05;100381.25;5034229;28;20052;-68
2021/10/25 03:55:10;;;;;;;5.43;2.53;;;;;;;6.92;95.25;100368.53;5033845;28;20060;-68
2021/10/25 04:28:35;;;;;;;5.00;2.50;;;;;;;6.62;96.96;100374.16;5016575;28;20064;-69
2021/10/25 04:31:03;;;;;;;3.60;1.70;;;;;;;6.56;97.32;100377.06;5033373;28;20335;-73
2021/10/25 04:33:52;;;;;;;5.35;2.15;;;;;;;6.45;97.23;100369.56;5033437;28;20073;-76
2021/10/25 04:36:38;;;;;;;6.22;2.22;;;;;;;6.47;97.26;100389.78;5032878;28;20469;-69
2021/10/25 04:39:16;;;;;;;10.10;2.72;;;;;;;6.51;97.14;100386.09;5030611;28;20041;-69
2021/10/25 04:41:44;;;;;;;3.80;2.40;;;;;;;6.47;97.28;100384.47;5032198;28;20459;-68
2021/10/25 04:44:11;;;;;;;3.67;2.40;;;;;;;6.44;97.19;100379.31;5034655;28;20052;-69
2021/10/25 04:46:39;;;;;;;4.43;2.50;;;;;;;6.43;97.53;100387.31;5021883;28;20053;-69
2021/10/25 04:49:06;;;;;;;9.98;3.30;;;;;;;6.39;97.43;100383.94;5020421;28;20034;-70
2021/10/25 04:52:05;;;;;;;7.00;2.42;;;;;;;6.35;97.68;100384.97;5027222;28;20065;-68
2021/10/25 04:54:33;;;;;;;4.95;2.20;;;;;;;6.35;97.25;100390.28;5015210;28;20136;-69
2021/10/25 04:57:00;;;;;;;12.07;3.22;;;;;;;6.41;97.21;100390.03;5017358;28;20045;-70
2021/10/25 04:59:27;;;;;;;7.78;2.38;;;;;;;6.41;97.53;100389.16;5016417;28;20427;-68
2021/10/25 05:01:55;;;;;;;4.50;2.53;;;;;;;6.34;97.42;100383.25;5030305;28;20454;-69
2021/10/25 05:04:22;;;;;;;5.50;2.88;;;;;;;6.33;97.64;100384.16;5016207;28;20352;-69
2021/10/25 05:06:49;;;;;;;4.18;2.45;;;;;;;6.37;97.58;100383.97;5036391;28;20328;-69
2021/10/25 05:09:17;;;;;;;6.95;2.90;;;;;;;6.43;96.76;100382.03;5035459;28;20037;-69
2021/10/25 05:11:46;;;;;;;5.18;2.65;;;;;;;6.43;96.83;100376.72;5036123;28;20058;-69
2021/10/25 05:14:13;;;;;;;4.75;2.20;;;;;;;6.43;97.01;100379.38;5037548;28;20435;-69
2021/10/25 05:16:40;;;;;;;5.07;3.17;;;;;;;6.28;97.01;100363.16;5036451;28;20072;-69
2021/10/25 05:19:08;;;;;;;5.03;2.72;;;;;;;6.38;96.98;100367.16;5037815;28;20057;-69
2021/10/25 05:21:37;;;;;;;11.40;3.55;;;;;;;6.38;97.18;100375.09;5036381;28;20360;-69
2021/10/25 05:24:04;;;;;;;3.90;2.42;;;;;;;6.35;97.30;100369.94;5036067;28;20466;-68
2021/10/25 05:26:32;;;;;;;7.13;2.95;;;;;;;6.37;97.13;100373.38;5036448;28;20149;-69
2021/10/25 05:29:01;;;;;;;3.67;2.40;;;;;;;6.38;96.98;100361.84;5036197;28;20046;-69
2021/10/25 05:31:28;;;;;;;3.63;2.13;;;;;;;6.41;96.83;100374.13;5036143;28;20049;-68
2021/10/25 05:33:57;;;;;;;5.57;2.50;;;;;;;6.44;96.98;100373.13;5036235;28;20041;-69
2021/10/25 05:36:24;;;;;;;5.07;2.75;;;;;;;6.45;96.54;100365.13;5035940;28;20183;-68
2021/10/25 05:38:51;;;;;;;4.55;2.28;;;;;;;6.52;96.17;100365.72;5036230;28;20397;-68
2021/10/25 05:41:18;;;;;;;5.82;2.78;;;;;;;6.52;96.00;100348.03;5035947;28;20053;-69
2021/10/25 05:43:47;;;;;;;9.23;2.58;;;;;;;6.56;95.88;100354.09;5036067;28;20049;-68
2021/10/25 05:46:13;;;;;;;5.65;2.38;;;;;;;6.51;96.09;100356.06;5035954;28;20072;-69
2021/10/25 05:48:41;;;;;;;6.30;2.25;;;;;;;6.44;96.89;100343.97;5035827;28;20047;-68
2021/10/25 05:51:10;;;;;;;6.50;2.72;;;;;;;6.45;96.34;100353.66;5035896;28;20061;-68
2021/10/25 05:53:37;;;;;;;5.75;2.60;;;;;;;6.47;96.14;100352.66;5035710;28;20058;-68
2021/10/25 05:56:06;;;;;;;4.78;2.40;;;;;;;6.49;96.17;100353.44;5035271;28;20049;-68
2021/10/25 05:58:34;;;;;;;8.88;2.42;;;;;;;6.49;96.09;100358.75;5035836;28;20052;-68
2021/10/25 06:01:05;;;;;;;6.35;3.70;;;;;;;6.54;95.68;100355.06;5035686;28;20140;-68
2021/10/25 06:03:43;;;;;;;6.00;3.03;;;;;;;6.53;95.67;100356.84;5033777;28;20425;-68
2021/10/25 06:06:11;;;;;;;3.40;2.30;;;;;;;6.50;95.64;100351.69;5017599;28;20112;-71
2021/10/25 06:08:40;;;;;;;8.65;3.08;;;;;;;6.53;95.44;100354.19;5040057;28;20045;-70
2021/10/25 06:11:08;;;;;;;7.65;2.45;;;;;;;6.54;94.92;100337.34;5037377;28;20049;-73
2021/10/25 06:13:43;;;;;;;6.43;2.83;;;;;;;6.67;94.35;100343.03;5044313;28;20072;-70
2021/10/25 06:16:14;;;;;;;5.78;2.78;;;;;;;6.71;93.39;100347.25;5042994;28;20045;-70
2021/10/25 06:18:45;;;;;;;8.85;2.88;;;;;;;6.75;93.47;100340.06;5034832;28;20048;-69
2021/10/25 06:21:14;;;;;;;4.18;2.63;;;;;;;6.79;92.90;100347.81;5034914;28;20064;-70
2021/10/25 06:23:42;;;;;;;5.18;2.60;;;;;;;6.79;92.75;100339.84;5030613;28;20359;-72
2021/10/25 06:26:22;;;;;;;;;;;;;;;6.81;92.29;100345.06;5048156;28;20045;-70
2021/10/25 06:28:49;;;;;;;5.30;2.50;;;;;;;6.79;92.49;100336.31;5031530;28;20007;-70
2021/10/25 06:31:17;;;;;;;5.03;2.63;;;;;;;6.84;92.26;100344.97;5030148;28;20386;-72
2021/10/25 06:33:59;;;;;;;5.25;2.65;;;;;;;6.82;91.54;100349.47;5030110;28;20096;-71
2021/10/25 06:36:48;;;;;;;9.65;2.75;;;;;;;6.78;92.24;100347.88;5048761;28;20053;-73
2021/10/25 06:39:38;;;;;;;8.85;3.78;;;;;;;6.80;92.31;100353.97;5007452;28;20117;-71
2021/10/25 06:42:06;;;;;;;4.68;2.92;;;;;;;6.76;92.52;100355.03;5033255;28;20044;-70
2021/10/25 06:44:51;;;;;;;8.35;2.80;;;;;;;6.78;91.94;100355.84;5042640;28;20052;-70
2021/10/25 06:47:23;;;;;;;5.32;2.83;;;;;;;6.77;92.14;100348.81;5051662;28;20373;-71
2021/10/25 06:49:51;;;;;;;5.07;2.90;;;;;;;6.74;91.79;100338.31;5051460;28;20128;-72
2021/10/25 06:52:18;;;;;;;9.73;2.53;;;;;;;6.85;91.59;100352.00;5035920;28;20152;-70
2021/10/25 06:54:45;;;;;;;6.60;3.10;;;;;;;6.84;92.39;100358.22;5033419;28;20046;-72
2021/10/25 06:57:12;;;;;;;3.88;2.38;;;;;;;6.85;91.66;100351.13;5046118;28;20033;-71
2021/10/25 06:59:44;;;;;;;4.50;2.55;;;;;;;7.00;90.75;100349.59;5045326;28;20330;-71
2021/10/25 07:02:14;;;;;;;4.55;2.67;;;;;;;7.03;90.91;100349.50;5034065;28;20136;-70
2021/10/25 07:04:45;;;;;;;4.60;2.43;;;;;;;7.07;89.92;100357.25;5044383;28;20132;-72
2021/10/25 07:07:12;;;;;;;3.30;2.10;;;;;;;7.18;89.62;100370.06;5034377;28;20045;-67
2021/10/25 07:09:42;;;;;;;5.20;2.63;;;;;;;7.17;90.29;100367.44;5033362;28;20128;-70
2021/10/25 07:12:10;;;;;;;4.32;2.47;;;;;;;7.26;90.10;100376.81;5013702;28;20198;-70
2021/10/25 07:14:39;;;;;;;7.10;2.45;;;;;;;7.35;89.00;100376.41;5047343;28;20385;-70
2021/10/25 07:23:01;;;;;;;3.83;2.08;;;;;;;7.37;90.48;100374.56;5020679;28;20038;-70
2021/10/25 08:05:33;;;;;;;3.13;1.85;;;;;;;8.88;81.81;100395.94;5043969;28;20064;-70
2021/10/25 08:08:46;;;;;;;4.22;1.92;;;;;;;9.18;80.68;100382.88;5047415;28;20048;-70
2021/10/25 08:11:05;;;;;;;3.55;1.83;;;;;;;9.43;80.45;100375.41;5046371;28;20379;-70
2021/10/25 08:13:43;;;;;;;5.65;2.00;;;;;;;9.62;79.35;100383.25;5047610;28;20052;-77
2021/10/25 08:21:20;;;;;;;3.60;1.95;;;;;;;9.97;79.35;100395.66;5054947;28;20047;-71
2021/10/25 08:23:50;;;;;;;6.88;2.13;;;;;;;10.00;78.72;100392.78;5049137;28;20103;-71
2021/10/25 08:26:35;;;;;;;5.10;1.95;;;;;;;10.08;77.07;100408.38;5036180;28;20056;-71
2021/10/25 08:29:04;;;;;;;5.20;1.85;;;;;;;10.09;77.09;100410.97;5051683;28;20065;-70
2021/10/25 08:31:35;;;;;;;8.20;2.17;;;;;;;10.09;78.50;100408.31;5035387;28;20041;-70
2021/10/25 08:42:12;;;;;;;3.97;2.25;;;;;;;10.14;79.11;100398.22;5051589;28;20063;-75
2021/10/25 08:44:40;;;;;;;4.43;2.65;;;;;;;10.11;79.55;100395.75;5045374;28;20076;-73
2021/10/25 08:47:08;;;;;;;4.63;1.95;;;;;;;10.16;80.92;100401.69;5046157;28;20034;-72
2021/10/25 08:49:35;;;;;;;4.80;1.70;;;;;;;10.18;80.97;100397.13;5039084;28;20457;-72
2021/10/25 08:52:03;;;;;;;8.63;2.08;;;;;;;10.33;80.99;100394.53;5032786;28;20092;-74
2021/10/25 08:54:35;;;;;;;3.38;1.85;;;;;;;10.43;80.63;100392.25;5025390;28;20053;-71
2021/10/25 08:57:03;;;;;;;3.50;1.83;;;;;;;10.52;78.78;100393.53;5052734;28;20418;-72
2021/10/25 08:59:34;;;;;;;6.72;1.98;;;;;;;10.65;79.49;100388.34;5032202;28;20034;-71
2021/10/25 09:02:08;;;;;;;4.15;2.10;;;;;;;10.76;78.09;100387.72;5040560;28;20140;-71
2021/10/25 09:05:11;;;;;;;2.88;1.60;;;;;;;10.86;78.01;100399.59;5049958;28;20366;-73
2021/10/25 09:07:53;;;;;;;3.70;1.90;;;;;;;10.97;77.53;100386.47;5020350;28;20050;-72
2021/10/25 09:10:28;;;;;;;4.75;1.65;;;;;;;11.13;76.83;100386.38;5052260;28;20057;-73
2021/10/25 09:13:03;;;;;;;5.03;1.70;;;;;;;11.19;77.39;100386.97;5047067;28;20045;-72
2021/10/25 09:15:38;;;;;;;3.13;1.75;;;;;;;11.31;76.65;100386.25;5050319;28;20053;-71
2021/10/25 09:18:32;;;;;;;4.90;1.73;;;;;;;11.26;77.28;100389.19;5038722;28;20455;-70
2021/10/25 09:21:10;;;;;;;3.17;1.98;;;;;;;11.35;76.60;100389.59;5050201;28;20107;-73
2021/10/25 09:23:44;;;;;;;7.30;2.03;;;;;;;11.39;77.67;100383.97;5049184;28;20119;-72
2021/10/25 09:26:19;;;;;;;6.05;1.95;;;;;;;11.51;77.45;100379.66;5049163;28;20068;-70
2021/10/25 09:28:50;;;;;;;7.15;2.13;;;;;;;11.61;77.67;100389.81;5021263;28;20140;-70
2021/10/25 09:31:23;;;;;;;5.03;2.17;;;;;;;11.69;76.55;100395.53;5045266;28;20038;-73
2021/10/25 09:33:58;;;;;;;4.75;2.42;;;;;;;11.67;75.91;100379.59;5049880;28;20059;-73
2021/10/25 09:36:52;;;;;;;6.40;2.28;;;;;;;11.84;75.36;100384.84;5034409;28;20490;-71
2021/10/25 09:39:39;;;;;;;5.45;2.25;;;;;;;11.89;75.81;100380.94;5053713;28;20428;-70
2021/10/25 09:51:16;;;;;;;2.80;1.88;;;;;;;12.08;74.64;100388.69;5030007;28;20067;-71
2021/10/25 09:54:06;;;;;;;3.42;1.88;;;;;;;12.14;74.25;100386.56;5038818;28;20041;-68
2021/10/25 09:56:55;;;;;;;6.43;2.03;;;;;;;12.27;73.91;100382.16;5039755;28;20136;-71
2021/10/25 09:59:56;;;;;;;3.58;1.70;;;;;;;12.48;72.57;100371.00;5052471;28;20053;-73
2021/10/25 10:02:42;;;;;;;5.28;2.00;;;;;;;12.62;72.34;100378.97;5047488;28;20426;-72
2021/10/25 10:05:18;;;;;;;3.42;1.83;;;;;;;12.70;72.62;100372.25;5050890;28;20332;-72
2021/10/25 10:07:50;;;;;;;4.97;1.90;;;;;;;12.81;70.97;100369.69;5050834;28;20375;-75
2021/10/25 10:10:31;;;;;;;2.67;1.45;;;;;;;12.80;70.72;100372.50;5030834;28;20050;-71
2021/10/25 10:13:03;;;;;;;3.13;1.70;;;;;;;12.82;69.39;100374.13;5051544;28;20064;-71
2021/10/25 10:15:35;;;;;;;4.55;1.48;;;;;;;12.84;68.53;100369.50;5031181;28;20049;-70
2021/10/25 10:18:10;;;;;;;3.42;1.40;;;;;;;12.98;67.83;100373.06;5045886;28;20052;-71
2021/10/25 10:21:14;;;;;;;3.67;1.48;;;;;;;13.07;68.01;100377.78;5048216;28;20372;-74
2021/10/25 10:23:46;;;;;;;4.60;1.70;;;;;;;12.91;66.23;100353.84;5046937;28;20056;-72
2021/10/25 10:26:16;;;;;;;4.25;1.48;;;;;;;12.98;67.28;100370.38;5034679;28;20044;-72
2021/10/25 10:28:51;;;;;;;2.65;1.83;;;;;;;12.84;67.38;100371.31;5051163;28;20463;-81
2021/10/25 10:31:24;;;;;;;2.47;1.25;;;;;;;12.84;67.83;100376.66;5035325;28;20435;-76
2021/10/25 10:34:13;;;;;;;3.40;1.30;;;;;;;13.02;68.07;100383.47;5033437;28;20107;-72
2021/10/25 10:36:55;;;;;;;3.25;1.48;;;;;;;13.22;66.97;100385.75;5028972;28;20137;-77
2021/10/25 10:39:41;;;;;;;3.00;1.58;;;;;;;13.29;67.08;100382.53;5048102;28;20091;-70
2021/10/25 10:42:30;;;;;;;5.63;1.95;;;;;;;13.28;67.13;100369.25;5028757;28;20136;-72
2021/10/25 10:45:12;;;;;;;7.82;1.70;;;;;;;13.29;66.28;100376.34;5016486;28;20045;-75
2021/10/25 10:47:50;;;;;;;3.53;1.90;;;;;;;13.43;67.04;100381.59;5033592;28;20046;-74
2021/10/25 10:50:27;;;;;;;2.83;1.30;;;;;;;13.40;67.68;100376.44;5035141;28;20045;-75
2021/10/25 10:53:03;;;;;;;6.63;2.03;;;;;;;13.41;66.97;100383.50;5030953;28;20055;-72
2021/10/25 10:55:37;;;;;;;6.20;1.88;;;;;;;13.32;67.70;100376.13;5035708;28;20045;-71
2021/10/25 11:00:36;;;;;;;2.03;1.42;;;;;;;13.59;66.03;100369.81;5035400;28;20034;-72
2021/10/25 11:03:18;;;;;;;4.55;2.22;;;;;;;13.64;65.97;100351.59;5035928;28;20351;-72
2021/10/25 11:05:51;;;;;;;3.45;1.98;;;;;;;13.69;64.76;100367.34;5034341;28;20355;-70
2021/10/25 11:08:24;;;;;;;5.63;1.60;;;;;;;13.78;64.97;100360.47;5035686;28;20072;-70
2021/10/25 11:11:02;;;;;;;3.60;1.60;;;;;;;13.76;65.75;100360.56;5034342;28;20046;-70
2021/10/25 11:13:33;;;;;;;6.45;1.55;;;;;;;13.64;65.57;100367.69;5035597;28;20049;-71
2021/10/25 11:16:19;;;;;;;3.65;1.27;;;;;;;13.74;64.91;100367.88;5035503;28;20045;-71
2021/10/25 11:18:54;;;;;;;2.13;1.25;;;;;;;13.69;64.67;100360.13;5035475;28;20061;-71
2021/10/25 11:21:36;;;;;;;5.90;1.30;;;;;;;13.65;63.49;100357.78;5050686;28;20056;-72
2021/10/25 11:24:07;;;;;;;2.03;1.30;;;;;;;13.70;63.35;100355.66;5035276;28;20422;-72
2021/10/25 11:26:44;;;;;;;2.60;1.10;;;;;;;13.71;63.56;100360.91;5018194;28;20053;-71
2021/10/25 11:29:12;;;;;;;4.70;1.40;;;;;;;13.68;63.24;100353.06;5034276;28;20042;-71
2021/10/25 11:31:41;;;;;;;2.83;1.58;;;;;;;13.73;63.64;100354.56;5035256;28;20426;-71
2021/10/25 11:34:12;;;;;;;3.88;1.30;;;;;;;13.73;62.99;100363.47;5017939;28;20053;-72
2021/10/25 11:37:10;;;;;;;5.75;1.60;;;;;;;13.68;62.80;100341.50;5035166;28;20063;-71
2021/10/25 11:39:53;;;;;;;2.70;1.30;;;;;;;13.73;63.43;100350.03;5015360;28;20038;-72
2021/10/25 11:42:21;;;;;;;2.95;1.17;;;;;;;13.57;62.33;100340.41;5014635;28;20045;-72
2021/10/25 11:44:53;;;;;;;2.97;1.08;;;;;;;13.47;63.71;100343.88;5015268;28;20049;-72
2021/10/25 11:47:24;;;;;;;2.85;1.30;;;;;;;13.42;63.82;100354.88;5015498;28;20057;-70
2021/10/25 11:49:53;;;;;;;5.32;1.35;;;;;;;13.40;64.57;100341.59;5030616;28;20052;-73
2021/10/25 11:52:20;;;;;;;5.38;1.48;;;;;;;13.38;63.93;100339.97;5032466;28;20041;-71
2021/10/25 11:54:49;;;;;;;1.77;1.30;;;;;;;13.31;64.62;100339.56;5039176;28;20053;-71
2021/10/25 11:57:18;;;;;;;2.25;1.30;;;;;;;13.41;65.48;100335.25;5038975;28;20045;-71
2021/10/25 12:00:05;;;;;;;3.90;1.42;;;;;;;13.47;64.47;100338.50;5038970;28;20431;-72
2021/10/25 12:02:38;;;;;;;3.40;1.67;;;;;;;13.54;64.04;100334.41;5038981;28;20085;-69
2021/10/25 12:05:07;;;;;;;2.53;1.20;;;;;;;13.53;64.27;100330.03;5038055;28;20469;-72
2021/10/25 12:07:47;;;;;;;2.92;1.27;;;;;;;13.58;63.40;100330.56;5038020;28;20037;-75
2021/10/25 12:10:15;;;;;;;3.63;1.63;;;;;;;13.62;64.49;100334.72;5038919;28;20403;-69
2021/10/25 12:12:42;;;;;;;3.50;1.52;;;;;;;13.61;64.35;100318.75;5037804;28;20042;-71
2021/10/25 12:15:15;;;;;;;2.22;1.20;;;;;;;13.89;64.34;100317.63;5038874;28;20458;-72
2021/10/25 12:17:42;;;;;;;6.05;1.50;;;;;;;14.18;63.96;100314.66;5037264;28;20068;-72
2021/10/25 12:20:12;;;;;;;3.83;1.40;;;;;;;14.08;63.02;100316.28;5037620;28;20053;-70
2021/10/25 12:22:43;;;;;;;3.35;1.50;;;;;;;14.08;63.03;100316.28;5037548;28;20045;-71
2021/10/25 12:25:10;;;;;;;5.35;1.30;;;;;;;14.08;61.98;100309.09;5038656;28;20052;-72
2021/10/25 12:27:39;;;;;;;3.40;1.60;;;;;;;14.09;63.52;100310.81;5038563;28;20116;-72
2021/10/25 12:30:11;;;;;;;6.72;1.80;;;;;;;13.99;62.62;100321.34;5038618;28;20099;-71
2021/10/25 12:32:53;;;;;;;3.25;1.55;;;;;;;13.86;63.86;100320.53;5038693;28;20044;-72
2021/10/25 12:35:37;;;;;;;3.65;1.70;;;;;;;13.77;63.57;100308.63;5038655;28;20045;-71
2021/10/25 12:38:09;;;;;;;5.28;1.83;;;;;;;13.78;63.38;100312.19;5037315;28;20046;-70
2021/10/25 12:40:39;;;;;;;7.57;2.22;;;;;;;13.72;63.68;100310.78;5038401;28;20045;-72
2021/10/25 12:43:06;;;;;;;4.33;1.70;;;;;;;13.78;64.91;100313.03;5038690;28;20041;-70
2021/10/25 12:45:44;;;;;;;4.88;2.17;;;;;;;13.79;64.04;100308.53;5038391;28;20282;-71
2021/10/25 12:48:14;;;;;;;7.78;1.70;;;;;;;13.82;64.52;100311.84;5037208;28;20057;-72
2021/10/25 12:50:44;;;;;;;3.97;1.50;;;;;;;13.87;63.99;100302.59;5038391;28;20376;-71
2021/10/25 12:53:13;;;;;;;3.88;1.60;;;;;;;13.90;63.96;100300.53;5038107;28;20055;-71
2021/10/25 12:55:44;;;;;;;2.65;1.60;;;;;;;13.92;64.22;100290.56;5038131;28;20041;-72
2021/10/25 12:58:12;;;;;;;2.40;1.48;;;;;;;14.03;63.00;100299.66;5038059;28;20140;-71
2021/10/25 13:00:39;;;;;;;2.38;1.30;;;;;;;13.96;64.09;100300.09;5037895;28;20041;-71
2021/10/25 13:03:11;;;;;;;5.13;1.90;;;;;;;13.99;64.16;100297.22;5037755;28;20057;-71
2021/10/25 13:05:40;;;;;;;3.92;1.80;;;;;;;13.97;64.57;100292.91;5036816;28;20099;-70
2021/10/25 13:08:09;;;;;;;3.35;1.75;;;;;;;13.88;63.82;100297.13;5036654;28;20057;-72
2021/10/25 13:10:41;;;;;;;3.90;1.60;;;;;;;13.84;64.15;100291.13;5037813;28;20544;-71
2021/10/25 13:13:12;;;;;;;4.88;1.95;;;;;;;13.82;65.05;100290.38;5037583;28;20104;-70
2021/10/25 13:15:42;;;;;;;5.60;1.73;;;;;;;13.89;65.41;100293.47;5037074;28;20037;-72
2021/10/25 13:18:10;;;;;;;5.60;1.52;;;;;;;13.82;65.20;100294.88;5017749;28;20517;-69
2021/10/25 13:20:41;;;;;;;3.67;1.88;;;;;;;13.70;65.18;100296.63;5016667;28;20050;-71
2021/10/25 13:23:11;;;;;;;3.38;1.48;;;;;;;13.53;66.07;100300.53;5003507;28;20045;-68
2021/10/25 13:25:38;;;;;;;4.85;1.60;;;;;;;13.44;66.54;100293.97;5028763;28;20041;-69
2021/10/25 13:28:07;;;;;;;3.17;1.83;;;;;;;13.49;66.91;100290.97;5025474;28;20080;-69
2021/10/25 13:30:35;;;;;;;3.35;1.50;;;;;;;13.44;67.91;100291.28;5034470;28;20497;-72
2021/10/25 13:33:03;;;;;;;2.45;1.60;;;;;;;13.28;68.71;100291.50;5028668;28;20045;-71